createdAt,value
2019-02-04T00:00:29.981Z,9.20
2019-02-04T00:02:57.326Z,10.50
2019-02-04T00:05:23.643Z,7.30
2019-02-04T00:07:49.848Z,7.73
2019-02-04T00:10:16.014Z,7.80
2019-02-04T00:12:42.220Z,7.93
2019-02-04T00:15:08.605Z,9.07
2019-02-04T00:17:35.123Z,7.40
2019-02-04T00:20:01.665Z,8.23
2019-02-04T00:22:27.872Z,8.63
2019-02-04T00:24:54.095Z,7.30
2019-02-04T00:27:20.328Z,8.70
2019-02-04T00:29:46.639Z,8.20
2019-02-04T00:32:12.830Z,8.93
2019-02-04T00:34:38.997Z,8.40
2019-02-04T00:37:05.283Z,8.27
2019-02-04T00:39:31.476Z,6.83
2019-02-04T00:41:57.692Z,7.60
2019-02-04T00:44:23.889Z,10.50
2019-02-04T00:46:52.355Z,7.43
2019-02-04T00:49:18.164Z,7.93
2019-02-04T00:51:44.366Z,9.63
2019-02-04T00:54:11.027Z,8.03
2019-02-04T00:56:37.215Z,7.00
2019-02-04T00:59:03.642Z,10.13
2019-02-04T01:01:29.835Z,9.17
2019-02-04T01:03:56.371Z,9.73
2019-02-04T01:06:22.540Z,8.70
2019-02-04T01:08:48.753Z,7.50
2019-02-04T01:11:14.906Z,6.37
2019-02-04T01:13:41.516Z,6.60
2019-02-04T01:16:07.712Z,8.00
2019-02-04T01:18:34.253Z,6.67
2019-02-04T01:21:00.412Z,7.70
2019-02-04T01:23:26.622Z,7.00
2019-02-04T01:25:53.054Z,7.70
2019-02-04T01:28:19.416Z,6.80
2019-02-04T01:30:45.577Z,6.87
2019-02-04T01:33:11.794Z,6.53
2019-02-04T01:35:37.957Z,6.77
2019-02-04T01:38:04.139Z,5.77
2019-02-04T01:40:30.300Z,6.80
2019-02-04T01:42:56.499Z,6.30
2019-02-04T01:45:23.781Z,6.17
2019-02-04T01:47:49.984Z,6.67
2019-02-04T01:50:19.719Z,7.60
2019-02-04T01:52:46.425Z,4.70
2019-02-04T01:55:13.637Z,6.47
2019-02-04T01:57:39.808Z,6.33
2019-02-04T02:00:19.753Z,6.77
2019-02-04T02:02:45.952Z,5.90
2019-02-04T02:05:12.722Z,7.23
2019-02-04T02:07:39.024Z,7.33
2019-02-04T02:10:10.544Z,6.90
2019-02-04T02:12:37.095Z,6.83
2019-02-04T02:15:06.560Z,7.23
2019-02-04T02:17:32.920Z,7.10
2019-02-04T02:19:59.527Z,6.30
2019-02-04T02:22:25.695Z,6.10
2019-02-04T02:24:52.293Z,6.60
2019-02-04T02:27:18.466Z,7.17
2019-02-04T02:29:45.140Z,6.30
2019-02-04T02:32:11.313Z,6.17
2019-02-04T02:34:37.807Z,6.83
2019-02-04T02:37:03.988Z,6.77
2019-02-04T02:39:30.556Z,9.07
2019-02-04T02:41:56.743Z,6.40
2019-02-04T02:44:22.940Z,6.50
2019-02-04T02:46:49.099Z,6.40
2019-02-04T02:49:15.278Z,6.07
2019-02-04T02:51:41.775Z,5.63
2019-02-04T02:54:07.970Z,6.83
2019-02-04T02:56:34.127Z,5.90
2019-02-04T02:59:00.872Z,6.80
2019-02-04T03:01:27.311Z,5.50
2019-02-04T03:03:53.527Z,6.77
2019-02-04T03:06:19.687Z,6.17
2019-02-04T03:08:46.122Z,5.63
2019-02-04T03:11:12.365Z,7.03
2019-02-04T03:13:38.586Z,5.60
2019-02-04T03:16:05.051Z,6.47
2019-02-04T03:18:38.044Z,5.83
2019-02-04T03:21:04.234Z,5.10
2019-02-04T03:23:30.443Z,6.87
2019-02-04T03:25:56.649Z,6.47
2019-02-04T03:28:22.852Z,7.83
2019-02-04T03:30:49.018Z,6.80
2019-02-04T03:33:15.200Z,5.97
2019-02-04T03:35:41.779Z,7.40
2019-02-04T03:38:07.927Z,6.63
2019-02-04T03:40:34.161Z,6.43
2019-02-04T03:43:00.461Z,9.00
2019-02-04T03:45:26.653Z,8.50
2019-02-04T03:48:04.134Z,6.97
2019-02-04T03:50:21.422Z,6.27
2019-02-04T03:52:47.994Z,5.57
2019-02-04T03:55:16.409Z,7.10
2019-02-04T03:57:42.772Z,6.80
2019-02-04T04:00:25.703Z,6.80
2019-02-04T04:02:52.355Z,6.03
2019-02-04T04:05:18.754Z,5.10
2019-02-04T04:07:45.031Z,6.00
2019-02-04T04:10:12.959Z,6.27
2019-02-04T04:12:39.126Z,6.67
2019-02-04T04:15:12.917Z,7.93
2019-02-04T04:17:39.355Z,6.90
2019-02-04T04:20:12.882Z,6.80
2019-02-04T04:22:39.050Z,7.37
2019-02-04T04:25:08.817Z,7.90
2019-02-04T04:27:34.992Z,6.67
2019-02-04T04:30:01.262Z,9.63
2019-02-04T04:32:30.016Z,7.47
2019-02-04T04:34:55.492Z,8.43
2019-02-04T04:37:21.647Z,7.37
2019-02-04T04:39:50.192Z,8.10
2019-02-04T04:42:16.355Z,6.30
2019-02-04T04:44:42.530Z,9.00
2019-02-04T04:47:08.744Z,6.53
2019-02-04T04:49:34.907Z,7.30
2019-02-04T04:52:01.389Z,7.90
2019-02-04T04:54:27.558Z,7.00
2019-02-04T04:56:54.058Z,7.90
2019-02-04T04:59:20.334Z,7.30
2019-02-04T05:01:46.605Z,9.00
2019-02-04T05:04:12.770Z,8.47
2019-02-04T05:06:38.998Z,6.97
2019-02-04T05:09:05.573Z,7.27
2019-02-04T05:11:31.773Z,6.27
2019-02-04T05:13:57.956Z,7.90
2019-02-04T05:16:24.484Z,7.77
2019-02-04T05:18:51.027Z,7.87
2019-02-04T05:21:17.206Z,9.20
2019-02-04T05:23:43.363Z,7.77
2019-02-04T05:26:09.563Z,6.37
2019-02-04T05:28:35.742Z,6.00
2019-02-04T05:31:01.926Z,6.77
2019-02-04T05:33:28.865Z,7.53
2019-02-04T05:35:55.052Z,6.40
2019-02-04T05:38:21.231Z,4.87
2019-02-04T05:40:47.430Z,5.37
2019-02-04T05:43:13.602Z,6.70
2019-02-04T05:45:39.777Z,7.57
2019-02-04T05:48:05.967Z,7.30
2019-02-04T05:50:32.140Z,5.63
2019-02-04T05:52:58.308Z,5.07
2019-02-04T05:55:24.486Z,5.23
2019-02-04T05:57:50.688Z,6.50
2019-02-04T06:00:26.151Z,5.10
2019-02-04T06:02:52.422Z,6.57
2019-02-04T06:05:18.917Z,4.73
2019-02-04T06:07:45.152Z,6.70
2019-02-04T06:10:11.544Z,6.00
2019-02-04T06:12:37.715Z,5.13
2019-02-04T06:15:09.156Z,4.90
2019-02-04T06:17:35.653Z,4.83
2019-02-04T06:20:07.027Z,6.37
2019-02-04T06:22:33.212Z,7.20
2019-02-04T06:24:59.402Z,4.10
2019-02-04T06:27:25.869Z,4.97
2019-02-04T06:29:52.113Z,5.73
2019-02-04T06:32:18.326Z,6.63
2019-02-04T06:34:44.518Z,6.87
2019-02-04T06:37:10.687Z,5.57
2019-02-04T06:39:36.855Z,6.53
2019-02-04T06:42:03.050Z,5.93
2019-02-04T06:44:29.217Z,7.07
2019-02-04T06:46:55.715Z,5.20
2019-02-04T06:49:21.879Z,6.10
2019-02-04T06:51:48.054Z,6.40
2019-02-04T06:54:14.267Z,6.53
2019-02-04T06:56:40.434Z,4.73
2019-02-04T06:59:06.591Z,8.70
2019-02-04T07:01:38.293Z,6.97
2019-02-04T07:04:05.051Z,5.83
2019-02-04T07:06:31.239Z,5.03
2019-02-04T07:08:57.418Z,5.40
2019-02-04T07:11:23.619Z,6.97
2019-02-04T07:13:49.808Z,6.13
2019-02-04T07:16:16.073Z,5.67
2019-02-04T07:18:42.481Z,5.70
2019-02-04T07:21:08.720Z,5.50
2019-02-04T07:23:35.345Z,6.27
2019-02-04T07:26:01.612Z,7.87
2019-02-04T07:28:27.819Z,6.43
2019-02-04T07:30:54.128Z,6.53
2019-02-04T07:33:20.505Z,5.23
2019-02-04T07:35:47.078Z,6.30
2019-02-04T07:38:13.254Z,7.50
2019-02-04T07:40:39.445Z,5.57
2019-02-04T07:43:05.662Z,6.47
2019-02-04T07:45:32.606Z,6.33
2019-02-04T07:47:58.813Z,5.77
2019-02-04T07:50:25.906Z,6.03
2019-02-04T07:52:52.106Z,6.07
2019-02-04T07:55:18.273Z,7.43
2019-02-04T07:57:47.801Z,6.87
2019-02-04T08:00:24.774Z,5.47
2019-02-04T08:02:53.581Z,6.97
2019-02-04T08:05:19.873Z,6.10
2019-02-04T08:07:46.056Z,7.00
2019-02-04T08:10:15.797Z,7.27
2019-02-04T08:12:43.520Z,6.87
2019-02-04T08:15:15.161Z,7.23
2019-02-04T08:17:41.682Z,8.40
2019-02-04T08:20:10.299Z,7.77
2019-02-04T08:22:36.520Z,9.53
2019-02-04T08:25:08.073Z,8.80
2019-02-04T08:27:35.360Z,8.00
2019-02-04T08:30:05.695Z,7.27
2019-02-04T08:32:32.278Z,7.33
2019-02-04T08:34:58.496Z,6.30
2019-02-04T08:37:24.690Z,5.03
2019-02-04T08:39:50.849Z,7.13
2019-02-04T08:42:17.042Z,7.00
2019-02-04T08:44:43.214Z,8.30
2019-02-04T08:47:09.544Z,7.13
2019-02-04T08:49:35.719Z,6.90
2019-02-04T08:52:02.341Z,7.10
2019-02-04T08:54:28.863Z,5.93
2019-02-04T08:56:56.975Z,7.63
2019-02-04T08:59:23.163Z,6.23
2019-02-04T09:01:49.321Z,7.77
2019-02-04T09:04:15.537Z,8.20
2019-02-04T09:06:41.724Z,6.37
2019-02-04T09:09:08.730Z,6.90
2019-02-04T09:11:35.545Z,6.10
2019-02-04T09:14:02.122Z,7.60
2019-02-04T09:16:28.683Z,5.40
2019-02-04T09:18:55.037Z,5.07
2019-02-04T09:21:21.185Z,4.87
2019-02-04T09:23:47.361Z,5.27
2019-02-04T09:26:13.584Z,5.03
2019-02-04T09:28:40.121Z,5.33
2019-02-04T09:31:06.271Z,5.13
2019-02-04T09:33:32.787Z,5.90
2019-02-04T09:35:58.972Z,6.23
2019-02-04T09:38:25.140Z,5.80
2019-02-04T09:40:51.334Z,5.73
2019-02-04T09:43:17.512Z,4.60
2019-02-04T09:45:44.150Z,5.90
2019-02-04T09:48:15.297Z,6.23
2019-02-04T09:50:45.698Z,6.70
2019-02-04T09:53:11.922Z,4.93
2019-02-04T09:55:38.398Z,4.60
2019-02-04T09:58:04.864Z,5.87
2019-02-04T10:00:34.058Z,5.50
2019-02-04T10:03:00.239Z,4.37
2019-02-04T10:05:26.509Z,4.70
2019-02-04T10:07:52.780Z,5.27
2019-02-04T10:10:25.401Z,5.97
2019-02-04T10:12:52.614Z,4.60
2019-02-04T10:15:26.119Z,4.40
2019-02-04T10:17:52.454Z,4.87
2019-02-04T10:20:38.617Z,3.87
2019-02-04T10:23:06.731Z,4.80
2019-02-04T10:25:39.193Z,6.33
2019-02-04T10:28:07.163Z,5.03
2019-02-04T10:30:33.460Z,5.17
2019-02-04T10:33:00.205Z,4.63
2019-02-04T10:35:26.866Z,5.13
2019-02-04T10:37:53.259Z,5.47
2019-02-04T10:40:28.022Z,5.97
2019-02-04T10:42:54.306Z,5.80
2019-02-04T10:45:20.541Z,4.43
2019-02-04T10:47:48.340Z,5.10
2019-02-04T10:50:32.299Z,4.40
2019-02-04T10:52:58.595Z,4.57
2019-02-04T10:55:24.925Z,4.10
2019-02-04T10:57:51.727Z,5.53
2019-02-04T11:00:26.570Z,4.10
2019-02-04T11:02:52.797Z,4.20
2019-02-04T11:05:23.024Z,4.03
2019-02-04T11:07:49.677Z,6.23
2019-02-04T11:10:19.885Z,4.00
2019-02-04T11:12:46.247Z,5.00
2019-02-04T11:15:15.249Z,4.97
2019-02-04T11:17:41.523Z,3.77
2019-02-04T11:20:18.479Z,3.63
2019-02-04T11:22:44.902Z,4.27
2019-02-04T11:25:11.464Z,4.27
2019-02-04T11:27:37.638Z,5.40
2019-02-04T11:30:23.905Z,3.87
2019-02-04T11:32:51.419Z,4.40
2019-02-04T11:35:17.979Z,4.40
2019-02-04T11:37:44.326Z,5.93
2019-02-04T11:40:24.931Z,5.13
2019-02-04T11:42:51.168Z,4.57
2019-02-04T11:45:17.768Z,4.00
2019-02-04T11:47:44.353Z,5.20
2019-02-04T11:50:13.172Z,3.77
2019-02-04T11:52:39.473Z,3.83
2019-02-04T11:55:11.050Z,4.47
2019-02-04T11:57:37.718Z,3.60
2019-02-04T12:00:09.580Z,4.97
2019-02-04T12:02:36.300Z,4.00
2019-02-04T12:05:07.849Z,3.77
2019-02-04T12:07:34.052Z,4.03
2019-02-04T12:10:00.338Z,3.90
2019-02-04T12:12:26.714Z,4.93
2019-02-04T12:14:52.862Z,3.00
2019-02-04T12:17:19.032Z,3.40
2019-02-04T12:19:45.622Z,4.60
2019-02-04T12:22:11.914Z,4.03
2019-02-04T12:24:38.120Z,2.57
2019-02-04T12:27:04.286Z,3.03
2019-02-04T12:29:30.459Z,7.17
2019-02-04T12:31:56.671Z,4.83
2019-02-04T12:34:22.886Z,4.43
2019-02-04T12:36:49.043Z,2.57
2019-02-04T12:39:17.699Z,2.93
2019-02-04T12:41:44.930Z,2.70
2019-02-04T12:44:11.177Z,3.63
2019-02-04T12:46:37.439Z,2.60
2019-02-04T12:49:03.624Z,3.57
2019-02-04T12:51:33.815Z,4.97
2019-02-04T12:53:57.900Z,3.93
2019-02-04T12:56:24.147Z,2.43
2019-02-04T12:58:55.615Z,3.10
2019-02-04T13:01:19.109Z,3.30
2019-02-04T13:03:45.343Z,2.33
2019-02-04T13:06:11.498Z,2.10
2019-02-04T13:08:37.749Z,2.77
2019-02-04T13:11:04.135Z,2.10
2019-02-04T13:13:30.423Z,1.90
2019-02-04T13:15:56.631Z,1.90
2019-02-04T13:18:23.036Z,2.33
2019-02-04T13:20:49.198Z,2.70
2019-02-04T13:23:15.450Z,2.47
2019-02-04T13:25:41.906Z,1.70
2019-02-04T13:28:12.664Z,2.67
2019-02-04T13:30:39.376Z,2.37
2019-02-04T13:33:05.639Z,1.20
2019-02-04T13:35:32.465Z,2.20
2019-02-04T13:37:58.667Z,1.93
2019-02-04T13:40:27.135Z,1.53
2019-02-04T13:42:53.458Z,1.93
2019-02-04T13:45:20.319Z,1.60
2019-02-04T13:47:48.144Z,1.10
2019-02-04T13:50:17.634Z,2.07
2019-02-04T13:52:44.928Z,1.53
2019-02-04T13:55:24.360Z,2.33
2019-02-04T13:57:50.831Z,1.17
2019-02-04T14:00:17.377Z,1.43
2019-02-04T14:02:58.795Z,2.07
2019-02-04T14:05:19.746Z,2.80
2019-02-04T14:07:45.919Z,1.13
2019-02-04T14:10:23.199Z,1.23
2019-02-04T14:12:49.495Z,1.30
2019-02-04T14:15:16.062Z,2.33
2019-02-04T14:17:43.016Z,1.87
2019-02-04T14:20:23.646Z,1.43
2019-02-04T14:22:53.426Z,1.97
2019-02-04T14:25:20.222Z,1.13
2019-02-04T14:27:46.728Z,1.53
2019-02-04T14:30:20.504Z,1.03
2019-02-04T14:32:47.020Z,2.00
2019-02-04T14:35:13.553Z,1.40
2019-02-04T14:37:40.239Z,2.33
2019-02-04T14:40:18.178Z,1.63
2019-02-04T14:42:37.494Z,1.53
2019-02-04T14:45:35.804Z,2.33
2019-02-04T14:48:34.604Z,1.97
2019-02-04T14:51:57.000Z,1.80
2019-02-04T14:55:04.748Z,3.13
2019-02-04T14:57:45.168Z,1.20
2019-02-04T15:00:32.544Z,2.50
2019-02-04T15:03:33.157Z,2.80
2019-02-04T15:06:08.123Z,4.43
2019-02-04T15:08:51.694Z,1.90
2019-02-04T15:11:23.605Z,1.47
2019-02-04T15:14:16.300Z,1.30
2019-02-04T15:16:57.648Z,1.77
2019-02-04T15:20:18.523Z,1.83
2019-02-04T15:23:01.833Z,2.03
2019-02-04T15:25:57.628Z,2.33
2019-02-04T15:29:04.312Z,3.00
2019-02-04T15:31:45.058Z,2.33
2019-02-04T15:34:22.825Z,2.80
2019-02-04T15:37:12.595Z,3.10
2019-02-04T15:39:59.054Z,3.97
2019-02-04T15:42:59.894Z,2.20
2019-02-04T15:46:01.644Z,2.53
2019-02-04T15:48:45.377Z,1.90
2019-02-04T15:51:17.299Z,3.57
2019-02-04T15:53:43.475Z,4.80
2019-02-04T15:56:10.165Z,1.97
2019-02-04T15:58:36.338Z,2.30
2019-02-04T16:01:04.827Z,3.43
2019-02-04T16:03:31.201Z,3.70
2019-02-04T16:05:57.432Z,4.37
2019-02-04T16:08:24.880Z,4.17
2019-02-04T16:10:51.874Z,3.03
2019-02-04T16:13:18.085Z,2.90
2019-02-04T16:15:44.281Z,6.57
2019-02-04T16:18:10.547Z,2.93
2019-02-04T16:20:38.618Z,4.40
2019-02-04T16:23:05.038Z,3.10
2019-02-04T16:25:31.385Z,3.13
2019-02-04T16:27:58.418Z,4.57
2019-02-04T16:30:24.634Z,2.50
2019-02-04T16:32:52.921Z,2.97
2019-02-04T16:35:20.010Z,3.13
2019-02-04T16:37:47.811Z,2.87
2019-02-04T16:40:18.515Z,3.37
2019-02-04T16:42:45.154Z,3.20
2019-02-04T16:45:15.826Z,2.57
2019-02-04T16:47:42.157Z,4.33
2019-02-04T16:50:16.571Z,3.90
2019-02-04T16:52:43.158Z,3.33
2019-02-04T16:55:09.364Z,3.97
2019-02-04T16:57:35.735Z,4.57
2019-02-04T17:00:13.260Z,4.50
2019-02-04T17:02:39.753Z,3.70
2019-02-04T17:05:10.970Z,4.53
2019-02-04T17:07:37.204Z,4.50
2019-02-04T17:10:09.317Z,4.20
2019-02-04T17:12:35.622Z,4.13
2019-02-04T17:15:05.227Z,4.33
2019-02-04T17:17:31.412Z,4.43
2019-02-04T17:19:58.392Z,5.17
2019-02-04T17:22:24.581Z,7.70
2019-02-04T17:24:50.929Z,4.57
2019-02-04T17:27:17.308Z,5.27
2019-02-04T17:29:43.569Z,3.97
2019-02-04T17:32:09.751Z,5.27
2019-02-04T17:34:36.077Z,3.87
2019-02-04T17:37:03.049Z,5.27
2019-02-04T17:39:29.442Z,3.97
2019-02-04T17:41:55.763Z,4.53
2019-02-04T17:44:22.514Z,3.50
2019-02-04T17:46:48.840Z,4.37
2019-02-04T17:49:15.076Z,6.37
2019-02-04T17:51:41.427Z,2.90
2019-02-04T17:54:07.628Z,2.63
2019-02-04T17:56:34.154Z,4.40
2019-02-04T17:59:00.705Z,3.20
2019-02-04T18:01:27.488Z,4.77
2019-02-04T18:03:53.737Z,3.63
2019-02-04T18:06:20.447Z,5.03
2019-02-04T18:08:47.431Z,4.93
2019-02-04T18:11:13.866Z,5.17
2019-02-04T18:13:41.748Z,5.10
2019-02-04T18:16:08.031Z,6.53
2019-02-04T18:18:34.461Z,5.50
2019-02-04T18:21:01.137Z,8.20
2019-02-04T18:23:27.785Z,3.70
2019-02-04T18:25:56.385Z,5.70
2019-02-04T18:28:23.006Z,7.47
2019-02-04T18:30:51.259Z,5.90
2019-02-04T18:33:20.902Z,4.40
2019-02-04T18:35:47.372Z,4.23
2019-02-04T18:38:14.096Z,4.53
2019-02-04T18:40:40.716Z,5.53
2019-02-04T18:43:07.269Z,4.63
2019-02-04T18:45:34.817Z,6.23
2019-02-04T18:48:01.275Z,6.10
2019-02-04T18:50:28.554Z,5.43
2019-02-04T18:52:55.685Z,3.83
2019-02-04T18:55:31.789Z,4.93
2019-02-04T18:57:58.556Z,5.17
2019-02-04T19:00:29.131Z,6.27
2019-02-04T19:02:57.254Z,4.93
2019-02-04T19:05:26.739Z,4.60
2019-02-04T19:07:52.783Z,3.93
2019-02-04T19:10:22.552Z,4.33
2019-02-04T19:12:49.371Z,5.23
2019-02-04T19:15:22.045Z,5.73
2019-02-04T19:17:49.118Z,5.00
2019-02-04T19:20:19.938Z,4.67
2019-02-04T19:22:46.760Z,5.63
2019-02-04T19:25:20.041Z,4.60
2019-02-04T19:27:47.069Z,6.33
2019-02-04T19:30:33.910Z,5.57
2019-02-04T19:33:01.088Z,5.27
2019-02-04T19:35:28.802Z,5.27
2019-02-04T19:37:55.703Z,6.80
2019-02-04T19:40:22.693Z,5.90
2019-02-04T19:42:49.513Z,5.37
2019-02-04T19:45:20.657Z,6.07
2019-02-04T19:47:49.262Z,7.17
2019-02-04T19:50:26.970Z,5.53
2019-02-04T19:52:53.989Z,6.93
2019-02-04T19:55:21.977Z,5.10
2019-02-04T19:57:49.089Z,5.80
2019-02-04T20:00:22.191Z,5.20
2019-02-04T20:02:51.609Z,7.03
2019-02-04T20:05:30.947Z,5.03
2019-02-04T20:07:57.778Z,4.37
2019-02-04T20:10:29.555Z,5.93
2019-02-04T20:12:56.810Z,6.93
2019-02-04T20:18:16.978Z,7.20
2019-02-04T20:20:44.145Z,6.03
2019-02-04T20:23:11.041Z,5.63
2019-02-04T20:25:38.352Z,6.60
2019-02-04T20:28:07.175Z,6.30
2019-02-04T20:30:45.671Z,7.10
2019-02-04T20:33:10.739Z,5.50
2019-02-04T20:35:37.867Z,5.20
2019-02-04T20:38:06.092Z,6.27
2019-02-04T20:40:33.231Z,5.83
2019-02-04T20:43:00.344Z,7.17
2019-02-04T20:45:27.545Z,5.90
2019-02-04T20:47:54.159Z,5.50
2019-02-04T20:50:27.576Z,6.03
2019-02-04T20:52:54.927Z,4.90
2019-02-04T20:55:22.112Z,6.63
2019-02-04T20:57:49.194Z,8.17
2019-02-04T21:00:22.968Z,7.30
2019-02-04T21:02:50.239Z,6.13
2019-02-04T21:05:17.827Z,6.37
2019-02-04T21:07:44.765Z,7.50
2019-02-04T21:10:19.270Z,6.50
2019-02-04T21:12:46.001Z,7.63
2019-02-04T21:15:16.162Z,7.23
2019-02-04T21:17:42.661Z,6.87
2019-02-04T21:20:21.531Z,6.20
2019-02-04T21:22:48.148Z,5.20
2019-02-04T21:25:14.878Z,6.13
2019-02-04T21:27:41.588Z,5.90
2019-02-04T21:30:17.058Z,6.03
2019-02-04T21:32:43.782Z,5.90
2019-02-04T21:35:10.332Z,6.47
2019-02-04T21:37:36.815Z,6.20
2019-02-04T21:40:12.939Z,6.07
2019-02-04T21:42:39.190Z,6.80
2019-02-04T21:45:12.861Z,5.77
2019-02-04T21:47:39.140Z,5.77
2019-02-04T21:50:17.984Z,4.07
2019-02-04T21:52:44.455Z,6.40
2019-02-04T21:55:11.937Z,5.77
2019-02-04T21:57:38.437Z,7.03
2019-02-04T22:00:14.320Z,6.77
2019-02-04T22:02:40.476Z,5.07
2019-02-04T22:05:12.050Z,4.90
2019-02-04T22:07:38.210Z,6.93
2019-02-04T22:10:13.409Z,8.10
2019-02-04T22:12:39.620Z,5.57
2019-02-04T22:15:07.392Z,4.63
2019-02-04T22:17:33.634Z,5.60
2019-02-04T22:19:59.795Z,5.23
2019-02-04T22:22:26.390Z,5.63
2019-02-04T22:24:52.587Z,4.23
2019-02-04T22:27:18.971Z,5.57
2019-02-04T22:29:45.145Z,4.63
2019-02-04T22:32:11.821Z,5.97
2019-02-04T22:34:38.408Z,4.93
2019-02-04T22:37:04.645Z,5.03
2019-02-04T22:39:30.816Z,5.20
2019-02-04T22:41:56.989Z,4.57
2019-02-04T22:44:23.286Z,4.40
2019-02-04T22:46:49.494Z,5.67
2019-02-04T22:49:15.644Z,6.53
2019-02-04T22:51:42.190Z,3.83
2019-02-04T22:54:08.336Z,4.87
2019-02-04T22:56:34.532Z,4.17
2019-02-04T22:59:00.781Z,5.60
2019-02-04T23:01:35.571Z,6.73
2019-02-04T23:04:01.838Z,4.67
2019-02-04T23:06:28.057Z,7.00
2019-02-04T23:08:54.256Z,6.07
2019-02-04T23:11:20.444Z,4.37
2019-02-04T23:13:47.228Z,4.97
2019-02-04T23:16:13.417Z,4.87
2019-02-04T23:18:39.591Z,4.47
2019-02-04T23:21:05.916Z,5.37
2019-02-04T23:23:32.461Z,4.93
2019-02-04T23:25:58.682Z,6.07
2019-02-04T23:28:25.149Z,5.87
2019-02-04T23:30:51.347Z,4.63
2019-02-04T23:33:17.562Z,6.10
2019-02-04T23:35:43.729Z,6.33
2019-02-04T23:38:09.919Z,4.43
2019-02-04T23:40:36.071Z,4.90
2019-02-04T23:43:02.579Z,3.70
2019-02-04T23:45:29.071Z,4.47
2019-02-04T23:47:55.644Z,3.80
2019-02-04T23:50:21.845Z,5.33
2019-02-04T23:52:48.121Z,4.07
2019-02-04T23:55:14.882Z,3.60
2019-02-04T23:57:41.281Z,4.17
